Lordstown, Ohio
Current Conditions -  °F | °C
As of 11:51 PM on Friday 24 Oct 2014 (Local Time) from KYNG Reporting Station
Overcast Overcast  
Wind Chill: 48°   Ceiling: 4600
Heat Index: 48°   Visibility: 10mi
Dew Point: 42°   Wind: 0mph
Humidity: 80%   Direction: NA
Pressure: 29.99"   Gusts: NA
Location:  41.176°N, 80.8696°W
Report Text: KYNG 250351Z 00000KT 10SM OVC046 09/06 A2999 RMK AO2 SLP157 BINOVC T00890056 $
Loading
Personal Weather Stations






























Interactive Weather Map
Tropical Storm Tracking
New forecast layout! Learn more

10-Day Weather Forecast

Advertisements
Track Severe Weather on mobile